This is the latest recevied weather packets stored in our database for station/object LRCL. If no packets are shown the sender has not sent any weather packets the latest 10 day(s).
| Time | Temp. | Humidity | Pressure | Rain* | Wind** | Luminosity | Snow |
|---|---|---|---|---|---|---|---|
| 1777779188 | 2.22° C | 81% | 1022 hPa | - | - | - | - |
| 1777778288 | 2.22° C | 75% | 1022 hPa | - | - | - | - |
| 1777777388 | 2.22° C | 75% | 1022 hPa | - | - | - | - |
| 1777776503 | 3.89° C | 65% | 1022 hPa | - | - | - | - |
| 1777775588 | 3.89° C | 65% | 1022 hPa | - | - | - | - |
| 1777774688 | 3.89° C | 70% | 1022 hPa | - | - | - | - |
| 1777773788 | 3.89° C | 70% | 1022 hPa | - | - | - | - |
| 1777772888 | 3.89° C | 70% | 1022 hPa | - | - | - | - |
| 1777771988 | 3.89° C | 70% | 1022 hPa | - | - | - | - |
| 1777771088 | 5° C | 66% | 1022 hPa | - | - | - | - |
| 1777770188 | 5° C | 66% | 1022 hPa | - | - | - | - |
| 1777769288 | 7.22° C | 57% | 1022 hPa | - | - | - | - |
| 1777768388 | 7.22° C | 57% | 1022 hPa | - | - | - | - |
| 1777767488 | 6.11° C | 66% | 1022 hPa | - | - | - | - |
| 1777766588 | 6.11° C | 66% | 1022 hPa | - | - | - | - |
| 1777765688 | 6.11° C | 66% | 1022 hPa | - | - | - | - |
| 1777764788 | 6.11° C | 66% | 1022 hPa | - | - | - | - |
| 1777763888 | 7.78° C | 57% | 1022 hPa | - | - | - | - |
| 1777762988 | 7.78° C | 57% | 1022 hPa | - | - | - | - |
| 1777762088 | 7.78° C | 57% | 1022 hPa | - | - | - | - |
| 1777761188 | 7.78° C | 57% | 1022 hPa | - | - | - | - |
| 1777760288 | 8.89° C | 58% | 1022 hPa | - | - | - | - |
| 1777759388 | 8.89° C | 58% | 1022 hPa | - | - | - | - |
| 1777758488 | 8.89° C | 58% | 1022 hPa | - | - | - | - |
| 1777757589 | 8.89° C | 58% | 1022 hPa | - | - | - | - |
* Rain since midnight (hover to see other rain measurements)
** Current wind speed in m/s (hover to see current wind gust speed)